createdAt,value
2023-02-03T00:50:54.748Z,82.63
2023-02-03T00:53:23.376Z,82.68
2023-02-03T00:55:53.151Z,82.45
2023-02-03T00:58:21.692Z,82.45
2023-02-03T01:00:51.839Z,82.52
2023-02-03T01:03:20.963Z,82.53
2023-02-03T01:05:52.112Z,82.29
2023-02-03T02:10:07.921Z,82.48
2023-02-03T02:12:36.313Z,82.52
2023-02-03T02:15:06.173Z,82.35
2023-02-03T02:17:57.904Z,82.44
2023-02-03T02:20:37.235Z,82.34
2023-02-03T02:23:38.131Z,82.21
2023-02-03T02:26:37.659Z,82.26
2023-02-03T02:29:24.448Z,82.30
2023-02-03T02:32:01.851Z,82.26
2023-02-03T02:34:42.065Z,82.28
2023-02-03T02:37:21.059Z,82.25
2023-02-03T02:39:57.765Z,82.15
2023-02-03T02:42:34.871Z,82.20
2023-02-03T02:45:12.661Z,82.08
2023-02-03T02:47:43.169Z,82.11
2023-02-03T02:50:21.805Z,82.15
2023-02-03T02:52:52.652Z,82.04
2023-02-03T02:55:25.761Z,81.99
2023-02-03T02:58:01.467Z,81.98
2023-02-03T03:00:32.692Z,82.06
2023-02-03T03:03:14.981Z,81.99
2023-02-03T03:05:50.262Z,82.03
2023-02-03T03:08:26.594Z,81.94
2023-02-03T03:10:57.408Z,81.95
2023-02-03T03:13:32.261Z,81.84
2023-02-03T03:16:05.136Z,81.92
2023-02-03T03:18:38.677Z,81.83
2023-02-03T03:21:09.700Z,81.89
2023-02-03T03:23:42.337Z,81.77
2023-02-03T03:26:16.093Z,81.69
2023-02-03T03:28:49.747Z,81.68
2023-02-03T03:31:21.493Z,81.53
2023-02-03T03:33:51.336Z,81.54
2023-02-03T03:36:25.517Z,81.50
2023-02-03T03:39:03.970Z,81.22
2023-02-03T03:41:40.771Z,81.26
2023-02-03T03:44:15.439Z,81.23
2023-02-03T03:46:49.952Z,81.17
2023-02-03T03:49:22.105Z,81.01
2023-02-03T03:51:55.373Z,81.05
2023-02-03T03:54:27.349Z,80.68
2023-02-03T03:57:00.934Z,80.90
2023-02-03T03:59:34.005Z,80.77
2023-02-03T04:02:05.394Z,80.67
2023-02-03T04:04:37.711Z,80.45
2023-02-03T04:07:06.763Z,80.38
2023-02-03T04:09:36.974Z,80.42
2023-02-03T04:12:07.242Z,80.14
2023-02-03T04:14:39.131Z,80.24
2023-02-03T04:17:07.999Z,80.16
2023-02-03T04:19:37.672Z,79.97
2023-02-03T04:22:07.814Z,79.84
2023-02-03T04:24:36.704Z,79.78
2023-02-03T04:27:05.626Z,79.66
2023-02-03T04:29:35.264Z,79.50
2023-02-03T04:32:04.024Z,79.50
2023-02-03T04:34:33.312Z,79.47
2023-02-03T04:37:05.629Z,79.31
2023-02-03T04:39:35.604Z,79.27
2023-02-03T04:42:04.037Z,79.34
2023-02-03T04:44:32.555Z,79.00
2023-02-03T04:47:01.745Z,78.90
2023-02-03T04:49:30.062Z,79.00
2023-02-03T04:51:58.916Z,78.82
2023-02-03T04:54:28.646Z,78.70
2023-02-03T04:56:57.867Z,78.90
2023-02-03T04:59:26.220Z,78.78
2023-02-03T05:01:56.222Z,78.64
2023-02-03T05:04:25.130Z,78.59
2023-02-03T05:06:53.883Z,78.56
2023-02-03T05:09:22.177Z,78.41
2023-02-03T05:11:53.961Z,78.37
2023-02-03T05:14:22.841Z,78.33
2023-02-03T05:16:51.630Z,78.27
2023-02-03T05:19:19.997Z,78.11
2023-02-03T05:21:50.271Z,78.09
2023-02-03T05:24:18.603Z,78.01
2023-02-03T05:26:47.396Z,77.98
2023-02-03T05:29:17.114Z,77.88
2023-02-03T05:31:47.209Z,77.89
2023-02-03T05:34:15.547Z,77.70
2023-02-03T05:36:44.730Z,77.71
2023-02-03T05:39:13.064Z,77.56
2023-02-03T05:41:52.654Z,77.47
2023-02-03T05:44:24.406Z,77.48
2023-02-03T05:46:54.624Z,77.44
2023-02-03T05:49:24.275Z,77.25
2023-02-03T05:51:54.076Z,77.30
2023-02-03T05:54:22.749Z,77.09
2023-02-03T05:56:51.550Z,77.13
2023-02-03T05:59:19.876Z,77.00
2023-02-03T06:01:50.699Z,76.96
2023-02-03T06:04:19.146Z,76.92
2023-02-03T06:06:48.600Z,76.86
2023-02-03T06:09:17.046Z,76.81
2023-02-03T06:11:46.197Z,76.80
2023-02-03T06:14:15.193Z,76.72
2023-02-03T06:16:43.612Z,76.71
2023-02-03T06:19:15.994Z,76.75
2023-02-03T06:21:44.594Z,76.66
2023-02-03T06:24:13.560Z,76.46
2023-02-03T06:26:42.057Z,76.48
2023-02-03T06:29:15.596Z,76.49
2023-02-03T06:31:44.856Z,76.40
2023-02-03T06:34:16.425Z,76.29
2023-02-03T06:36:44.798Z,76.37
2023-02-03T06:39:13.150Z,76.24
2023-02-03T06:41:41.986Z,76.39
2023-02-03T06:44:10.336Z,76.45
2023-02-03T06:46:39.800Z,76.36
2023-02-03T06:49:08.574Z,76.34
2023-02-03T06:51:38.487Z,76.40
2023-02-03T07:12:14.855Z,76.77
2023-02-03T07:14:43.763Z,76.83
2023-02-03T07:17:12.639Z,76.72
2023-02-03T07:19:41.081Z,76.87
2023-02-03T07:22:11.859Z,76.88
2023-02-03T07:24:44.363Z,76.87
2023-02-03T07:27:12.692Z,76.83
2023-02-03T07:29:41.117Z,76.85
2023-02-03T07:32:09.764Z,76.57
2023-02-03T07:34:38.670Z,76.78
2023-02-03T07:37:07.057Z,76.74
2023-02-03T07:39:35.419Z,76.77
2023-02-03T07:42:06.703Z,76.63
2023-02-03T07:44:41.571Z,76.32
2023-02-03T07:47:12.545Z,76.38
2023-02-03T07:52:48.545Z,76.18
2023-02-03T07:55:16.913Z,76.09
2023-02-03T07:57:50.046Z,75.81
2023-02-03T08:00:19.748Z,75.77
2023-02-03T08:02:51.806Z,75.68
2023-02-03T08:12:15.294Z,75.18
2023-02-03T08:15:17.687Z,75.13
2023-02-03T08:17:51.287Z,74.91
2023-02-03T08:20:21.532Z,74.68
2023-02-03T08:22:57.908Z,74.66
2023-02-03T08:25:26.837Z,74.59
2023-02-03T08:27:56.631Z,74.51
2023-02-03T08:37:13.839Z,74.19
2023-02-03T08:40:09.833Z,73.97
2023-02-03T08:42:51.730Z,73.88
2023-02-03T08:45:24.794Z,73.78
2023-02-03T08:47:55.360Z,73.76
2023-02-03T08:50:26.600Z,73.67
2023-02-03T08:52:56.247Z,73.63
2023-02-03T08:55:25.141Z,73.53
2023-02-03T08:57:53.987Z,73.51
2023-02-03T09:00:23.118Z,73.40
2023-02-03T09:02:51.639Z,73.21
2023-02-03T09:05:21.904Z,73.26
2023-02-03T09:07:50.233Z,73.05
2023-02-03T09:10:19.472Z,73.14
2023-02-03T09:12:48.253Z,72.96
2023-02-03T09:15:16.634Z,72.84
2023-02-03T09:17:45.836Z,72.70
2023-02-03T09:20:15.102Z,72.64
2023-02-03T09:22:45.692Z,72.57
2023-02-03T09:25:16.305Z,72.59
2023-02-03T09:27:45.729Z,72.55
2023-02-03T09:30:15.033Z,72.49
2023-02-03T09:32:45.201Z,72.20
2023-02-03T09:35:13.950Z,72.17
2023-02-03T09:37:42.767Z,72.23
2023-02-03T09:40:21.836Z,72.04
2023-02-03T09:43:01.450Z,71.98
2023-02-03T09:45:31.022Z,72.16
2023-02-03T09:48:04.565Z,72.15
2023-02-03T09:50:36.868Z,72.01
2023-02-03T09:53:17.717Z,72.11
2023-02-03T09:55:49.590Z,72.12
2023-02-03T09:58:21.131Z,71.97
2023-02-03T10:00:54.941Z,71.93
2023-02-03T10:03:32.094Z,71.93
2023-02-03T10:06:11.089Z,71.75
2023-02-03T10:08:53.299Z,71.68
2023-02-03T10:11:39.241Z,71.66
2023-02-03T10:14:18.182Z,71.39
2023-02-03T10:17:05.740Z,71.43
2023-02-03T10:19:43.105Z,71.35
2023-02-03T10:22:16.934Z,71.43
2023-02-03T10:24:49.576Z,71.53
2023-02-03T10:27:22.491Z,71.48
2023-02-03T10:29:58.701Z,71.40
2023-02-03T10:32:28.829Z,71.29
2023-02-03T10:34:57.956Z,71.25
2023-02-03T10:37:31.842Z,71.25
2023-02-03T10:40:02.325Z,71.17
2023-02-03T10:42:49.926Z,71.11
2023-02-03T10:45:18.593Z,70.97
2023-02-03T10:47:51.960Z,70.74
2023-02-03T10:50:23.242Z,70.79
2023-02-03T10:52:52.133Z,70.99
2023-02-03T10:55:32.581Z,70.82
2023-02-03T10:58:16.249Z,70.91
2023-02-03T11:00:44.642Z,70.85
2023-02-03T11:03:25.182Z,71.06
2023-02-03T11:06:09.230Z,70.98
2023-02-03T11:08:42.839Z,71.12
2023-02-03T11:11:23.253Z,71.14
2023-02-03T11:14:17.423Z,71.18
2023-02-03T11:16:48.819Z,71.07
2023-02-03T11:19:19.441Z,71.23
2023-02-03T11:21:51.923Z,71.34
2023-02-03T11:24:22.199Z,71.32
2023-02-03T11:26:56.169Z,71.22
2023-02-03T11:29:28.455Z,71.10
2023-02-03T11:32:01.305Z,71.35
2023-02-03T11:34:32.427Z,71.28
2023-02-03T11:37:27.540Z,71.30
2023-02-03T11:39:57.756Z,71.14
2023-02-03T11:42:26.216Z,70.85
2023-02-03T11:45:15.663Z,70.97
2023-02-03T11:47:49.091Z,70.79
2023-02-03T11:50:30.754Z,70.81
2023-02-03T11:53:21.801Z,70.52
2023-02-03T11:56:11.571Z,70.40
2023-02-03T11:59:01.855Z,70.26
2023-02-03T12:01:56.764Z,70.07
2023-02-03T12:04:40.360Z,69.84
2023-02-03T12:07:34.755Z,69.82
2023-02-03T12:10:13.767Z,69.61
2023-02-03T12:12:52.261Z,69.62
2023-02-03T12:15:47.311Z,69.35
2023-02-03T12:18:29.655Z,69.22
2023-02-03T12:21:13.485Z,69.34
2023-02-03T12:23:53.030Z,69.38
2023-02-03T12:26:24.971Z,69.19
2023-02-03T12:29:03.117Z,69.04
2023-02-03T12:31:39.238Z,69.02
2023-02-03T12:34:19.919Z,68.77
2023-02-03T12:36:53.519Z,68.55
2023-02-03T12:39:28.849Z,68.50
2023-02-03T12:42:02.605Z,68.49
2023-02-03T12:44:40.796Z,68.37
2023-02-03T12:47:19.840Z,68.25
2023-02-03T12:49:54.878Z,68.17
2023-02-03T12:52:30.045Z,67.99
2023-02-03T12:55:20.201Z,68.12
2023-02-03T12:57:55.615Z,67.95
2023-02-03T13:00:36.182Z,67.95
2023-02-03T13:03:14.562Z,67.80
2023-02-03T13:05:53.269Z,67.81
2023-02-03T13:08:29.607Z,67.72
2023-02-03T13:11:09.429Z,67.48
2023-02-03T13:13:44.703Z,67.49
2023-02-03T13:16:17.511Z,67.51
2023-02-03T13:18:51.340Z,67.50
2023-02-03T13:21:24.317Z,67.42
2023-02-03T13:23:53.700Z,67.17
2023-02-03T13:26:57.170Z,67.14
2023-02-03T13:29:48.128Z,67.27
2023-02-03T13:32:36.934Z,67.16
2023-02-03T13:35:32.289Z,67.00
2023-02-03T13:38:23.523Z,67.01
2023-02-03T13:41:01.956Z,67.02
2023-02-03T13:43:38.874Z,66.82
2023-02-03T13:46:14.479Z,66.80
2023-02-03T13:48:47.435Z,66.74
2023-02-03T13:51:20.070Z,66.73
2023-02-03T13:53:52.311Z,66.68
2023-02-03T13:56:24.756Z,66.59
2023-02-03T13:59:05.850Z,66.76
2023-02-03T14:01:38.695Z,66.42
2023-02-03T14:04:10.030Z,66.28
2023-02-03T14:07:01.346Z,66.44
2023-02-03T14:09:43.123Z,66.05
2023-02-03T14:12:37.005Z,66.19
2023-02-03T14:15:31.646Z,65.95
2023-02-03T14:18:35.815Z,66.03
2023-02-03T14:21:15.767Z,65.94
2023-02-03T14:23:49.735Z,66.10
2023-02-03T14:26:32.222Z,65.95
2023-02-03T14:29:02.073Z,65.93
2023-02-03T14:31:31.206Z,65.97
2023-02-03T14:34:14.060Z,65.95
2023-02-03T14:36:47.989Z,65.83
2023-02-03T14:39:55.220Z,65.95
2023-02-03T14:42:44.729Z,66.08
2023-02-03T14:45:24.837Z,66.13
2023-02-03T14:48:07.071Z,66.08
2023-02-03T14:50:47.846Z,66.25
2023-02-03T14:53:31.236Z,66.28
2023-02-03T14:56:12.138Z,66.42
2023-02-03T14:58:48.278Z,66.37
2023-02-03T15:01:29.856Z,66.41
2023-02-03T15:04:24.925Z,66.47
2023-02-03T15:06:54.921Z,66.51
2023-02-03T15:09:30.942Z,66.48
2023-02-03T15:11:59.869Z,66.71
2023-02-03T15:14:32.181Z,66.73
2023-02-03T15:17:02.648Z,66.59
2023-02-03T15:19:35.290Z,66.75
2023-02-03T15:22:20.266Z,66.73
2023-02-03T15:24:50.944Z,66.83
2023-02-03T15:27:24.963Z,66.68
2023-02-03T15:29:57.227Z,66.82
2023-02-03T15:32:30.159Z,66.71
2023-02-03T15:35:02.598Z,66.76
2023-02-03T15:37:35.556Z,66.85
2023-02-03T15:40:09.146Z,66.95
2023-02-03T15:42:44.507Z,67.02
2023-02-03T15:45:30.023Z,67.22
2023-02-03T15:48:04.626Z,67.11
2023-02-03T15:50:43.083Z,67.28
2023-02-03T15:53:18.671Z,67.55
2023-02-03T15:55:51.622Z,67.22
2023-02-03T15:58:24.435Z,67.67
2023-02-03T16:00:59.489Z,67.72
2023-02-03T16:03:34.581Z,67.85
2023-02-03T16:06:09.600Z,68.16
2023-02-03T16:08:43.859Z,68.50
2023-02-03T16:11:24.203Z,68.69
2023-02-03T16:13:55.827Z,68.99
2023-02-03T16:16:29.118Z,69.17
2023-02-03T16:43:45.830Z,71.23
2023-02-03T16:46:31.872Z,71.16
2023-02-03T16:49:18.443Z,71.37
2023-02-03T16:51:48.283Z,71.47
2023-02-03T16:54:21.522Z,71.69
2023-02-03T17:00:18.929Z,71.92
2023-02-03T17:02:47.976Z,72.08
2023-02-03T17:05:21.550Z,72.07
2023-02-03T17:07:52.758Z,72.28
2023-02-03T17:10:21.977Z,72.45
2023-02-03T17:12:52.633Z,72.52
2023-02-03T17:15:21.886Z,72.75
2023-02-03T17:17:50.231Z,72.87
2023-02-03T17:20:19.792Z,73.15
2023-02-03T17:22:52.682Z,73.26
2023-02-03T18:21:33.593Z,77.47
2023-02-03T18:28:45.870Z,77.66
2023-02-03T18:36:09.155Z,77.80
2023-02-03T18:38:43.601Z,77.64
2023-02-03T18:44:06.164Z,78.01
2023-02-03T18:46:36.663Z,77.94
2023-02-03T18:49:05.302Z,78.19
2023-02-03T19:13:36.948Z,78.31
2023-02-03T19:16:30.860Z,78.23
2023-02-03T19:18:59.584Z,78.30
2023-02-03T19:21:29.216Z,78.41
2023-02-03T19:23:58.802Z,78.45
2023-02-03T19:26:29.965Z,78.60
2023-02-03T19:29:00.189Z,78.63
2023-02-03T19:31:28.765Z,78.65
2023-02-03T19:33:59.720Z,78.66
2023-02-03T19:36:28.840Z,79.00
2023-02-03T19:39:01.226Z,78.82
2023-02-03T19:41:30.921Z,78.84
2023-02-03T19:44:00.773Z,78.97
2023-02-03T19:46:32.600Z,79.10
2023-02-03T19:49:01.039Z,79.28
2023-02-03T19:51:29.893Z,79.17
2023-02-03T19:53:58.986Z,79.42
2023-02-03T19:56:28.497Z,79.29
2023-02-03T20:00:52.635Z,79.50
2023-02-03T20:03:49.637Z,79.92
2023-02-03T20:06:18.539Z,79.81
2023-02-03T20:08:54.653Z,80.04
2023-02-03T20:11:23.813Z,80.05
2023-02-03T20:13:52.384Z,80.17
2023-02-03T20:19:37.371Z,80.30
2023-02-03T20:22:06.050Z,80.57
2023-02-03T20:24:34.771Z,80.67
2023-02-03T20:27:03.280Z,80.67
2023-02-03T20:29:38.933Z,80.87
2023-02-03T20:32:11.763Z,81.15
2023-02-03T20:34:42.301Z,81.19
2023-02-03T20:37:13.325Z,81.37
2023-02-03T20:39:46.476Z,81.43
2023-02-03T20:42:17.362Z,81.63
2023-02-03T20:47:59.797Z,81.89
2023-02-03T20:50:41.589Z,82.01
2023-02-03T20:53:15.486Z,82.27
2023-02-03T20:55:46.575Z,82.22
2023-02-03T20:58:19.914Z,82.13
2023-02-03T21:00:57.017Z,82.38
2023-02-03T21:06:48.088Z,82.51
2023-02-03T21:09:19.302Z,82.60
2023-02-03T21:11:48.006Z,82.76
2023-02-03T21:14:20.785Z,82.88
2023-02-03T21:16:49.927Z,82.83
2023-02-03T21:19:28.713Z,82.77
2023-02-03T21:22:09.715Z,82.99
2023-02-03T21:24:38.044Z,82.98
2023-02-03T21:27:23.548Z,83.03
2023-02-03T21:29:55.712Z,83.23
2023-02-03T21:32:27.059Z,83.46
2023-02-03T21:34:55.631Z,83.37
2023-02-03T21:37:41.373Z,83.38
2023-02-03T21:40:28.652Z,83.51
2023-02-03T21:42:58.713Z,83.59
2023-02-03T21:45:42.010Z,83.59
2023-02-03T21:48:28.737Z,83.61
2023-02-03T21:51:01.565Z,83.69
2023-02-03T21:53:35.604Z,83.75
2023-02-03T21:56:19.392Z,83.69
2023-02-03T21:58:50.719Z,83.70
2023-02-03T22:01:22.734Z,83.72
2023-02-03T22:03:55.662Z,83.74
2023-02-03T22:06:27.139Z,83.82
2023-02-03T22:08:59.425Z,83.81
2023-02-03T22:14:55.965Z,83.95
2023-02-03T22:17:24.752Z,83.80
2023-02-03T22:19:53.108Z,83.66
2023-02-03T22:22:21.818Z,83.60
2023-02-03T22:24:54.540Z,83.59
2023-02-03T22:27:25.109Z,83.36
2023-02-03T22:29:56.779Z,83.29
2023-02-03T22:32:25.209Z,83.10
2023-02-03T22:35:01.296Z,83.00
2023-02-03T22:37:32.305Z,82.86
2023-02-03T22:40:02.533Z,82.90
2023-02-03T22:42:30.915Z,82.77
2023-02-03T22:44:59.298Z,82.80
2023-02-03T22:47:27.695Z,82.53
2023-02-03T22:49:56.876Z,82.54
2023-02-03T22:52:32.754Z,82.25
2023-02-03T22:55:03.983Z,82.26
2023-02-03T22:57:32.437Z,82.23
2023-02-03T23:00:01.745Z,82.22
2023-02-03T23:02:30.579Z,82.02
2023-02-03T23:04:58.980Z,81.99
2023-02-03T23:07:31.822Z,81.84
2023-02-03T23:10:00.254Z,81.82
2023-02-03T23:12:30.340Z,81.68
2023-02-03T23:14:58.784Z,81.61
2023-02-03T23:17:27.551Z,81.56
2023-02-03T23:19:56.906Z,81.38
2023-02-03T23:22:27.476Z,81.40
2023-02-03T23:25:28.185Z,81.25
2023-02-03T23:31:24.117Z,80.80
2023-02-03T23:34:07.558Z,80.79
2023-02-03T23:36:35.954Z,80.61
2023-02-03T23:39:05.207Z,80.29
2023-02-03T23:41:33.527Z,80.03
2023-02-03T23:44:04.202Z,79.84
2023-02-03T23:46:32.587Z,79.66
2023-02-03T23:49:01.325Z,79.34
2023-02-03T23:51:29.684Z,79.09
2023-02-03T23:53:58.962Z,78.93
2023-02-03T23:56:27.364Z,78.70
2023-02-03T23:58:56.017Z,78.40
